Time;durP1;ratioP1;P1;durP2;ratioP2;P2;SDS_P1;SDS_P2;PMS_P1;PMS_P2;Temp;Humidity;BMP_temperature;BMP_pressure;BME280_temperature;BME280_humidity;BME280_pressure;Samples;Min_cycle;Max_cycle;Signal;HPM_P1;HPM_P2
2024/01/16 11:50:08;;;;;;;3.27;0.90;;;0.20;99.90;;;;;;6347362;22;20019;-32
2024/01/16 11:52:47;;;;;;;4.97;1.23;;;0.00;99.90;;;;;;6347500;22;20022;-32
2024/01/16 11:55:31;;;;;;;7.27;1.13;;;0.10;99.90;;;;;;6347818;22;20015;-32
2024/01/16 11:58:20;;;;;;;2.90;1.10;;;0.20;99.90;;;;;;6347904;22;20015;-36
2024/01/16 12:00:51;;;;;;;12.47;2.27;;;0.20;99.90;;;;;;6294614;22;20425;-36
2024/01/16 12:03:19;;;;;;;6.20;1.43;;;0.30;99.90;;;;;;6347431;22;20057;-38
2024/01/16 12:05:58;;;;;;;5.20;2.65;;;0.00;99.90;;;;;;6343684;22;20010;-33
2024/01/16 12:08:24;;;;;;;2.60;1.30;;;0.20;99.90;;;;;;6341419;22;20026;-34
2024/01/16 12:10:49;;;;;;;8.15;2.72;;;0.30;99.90;;;;;;6340736;22;20018;-33
2024/01/16 12:13:15;;;;;;;5.50;1.67;;;0.30;99.90;;;;;;6340603;22;20011;-34
2024/01/16 12:15:42;;;;;;;7.30;1.13;;;0.20;99.90;;;;;;6312736;22;20030;-33
2024/01/16 12:18:08;;;;;;;5.57;1.40;;;0.00;99.90;;;;;;6340622;22;20059;-32
2024/01/16 12:20:37;;;;;;;9.80;1.05;;;-0.10;99.90;;;;;;6340642;22;20061;-32
2024/01/16 12:23:05;;;;;;;10.33;1.50;;;0.30;99.90;;;;;;6313092;22;20026;-33
2024/01/16 12:25:32;;;;;;;5.00;1.10;;;0.10;99.90;;;;;;6313122;22;20011;-32
2024/01/16 12:28:02;;;;;;;8.60;1.40;;;0.30;99.90;;;;;;6313160;22;20015;-32
2024/01/16 12:30:33;;;;;;;6.72;1.63;;;0.00;99.90;;;;;;6312718;22;20140;-32
2024/01/16 12:33:06;;;;;;;3.00;1.37;;;-0.10;99.90;;;;;;6340736;22;20092;-33
2024/01/16 12:35:40;;;;;;;6.68;1.95;;;0.40;99.90;;;;;;6340511;22;20015;-31
2024/01/16 12:38:10;;;;;;;12.80;1.37;;;0.10;99.90;;;;;;6340518;22;20015;-31
2024/01/16 12:40:39;;;;;;;9.05;2.33;;;0.40;99.90;;;;;;6341181;22;20322;-32
2024/01/16 12:43:12;;;;;;;8.93;2.38;;;0.50;99.90;;;;;;6312809;22;20311;-31
2024/01/16 12:45:37;;;;;;;10.10;2.30;;;0.60;99.90;;;;;;6313381;22;20018;-31
2024/01/16 12:48:04;;;;;;;7.28;2.38;;;0.70;99.90;;;;;;6324148;22;20074;-31
2024/01/16 12:50:32;;;;;;;7.05;2.65;;;0.70;99.90;;;;;;6309220;22;20023;-31
2024/01/16 12:53:09;;;;;;;10.73;3.03;;;0.90;99.90;;;;;;6282301;22;20020;-31
2024/01/16 12:55:39;;;;;;;8.43;3.17;;;1.30;99.90;;;;;;6309602;22;20122;-31
2024/01/16 12:58:18;;;;;;;7.07;3.50;;;1.50;99.90;;;;;;6281922;22;20021;-31
2024/01/16 13:00:46;;;;;;;10.68;3.30;;;1.70;99.90;;;;;;6256136;22;20346;-30
2024/01/16 13:03:22;;;;;;;14.93;3.78;;;1.50;99.90;;;;;;6309042;22;20023;-30
2024/01/16 13:05:59;;;;;;;8.65;3.42;;;1.90;99.90;;;;;;6282075;22;20086;-30
2024/01/16 13:08:26;;;;;;;14.75;3.92;;;2.00;99.90;;;;;;6309678;22;20021;-31
2024/01/16 13:11:08;;;;;;;9.80;3.53;;;2.10;99.90;;;;;;6309216;22;20425;-30
2024/01/16 13:13:34;;;;;;;6.97;2.80;;;2.10;99.90;;;;;;6308900;22;20502;-30
2024/01/16 13:16:01;;;;;;;9.65;3.03;;;2.00;99.90;;;;;;6308758;22;20237;-30
2024/01/16 13:18:29;;;;;;;12.93;3.13;;;2.10;99.90;;;;;;6308437;22;20025;-31
2024/01/16 13:20:56;;;;;;;14.60;3.30;;;2.30;99.90;;;;;;6308952;22;20023;-30
2024/01/16 13:23:24;;;;;;;9.15;2.95;;;2.20;99.90;;;;;;6308866;22;20026;-30
2024/01/16 13:25:51;;;;;;;9.02;2.80;;;2.30;99.90;;;;;;6281647;22;20058;-30
2024/01/16 13:28:18;;;;;;;7.65;3.05;;;2.20;99.90;;;;;;6308716;22;20019;-31
2024/01/16 13:30:45;;;;;;;13.93;3.45;;;2.40;99.90;;;;;;6309425;22;20045;-30
2024/01/16 13:33:11;;;;;;;18.80;4.05;;;2.50;99.90;;;;;;6255785;22;20022;-30
2024/01/16 13:35:48;;;;;;;10.70;3.88;;;2.60;99.90;;;;;;6309509;22;20015;-30
2024/01/16 13:38:15;;;;;;;6.68;2.10;;;2.50;99.90;;;;;;6308733;22;20511;-30
2024/01/16 13:40:42;;;;;;;7.07;2.70;;;2.50;99.90;;;;;;6310115;22;20084;-31
2024/01/16 13:43:08;;;;;;;8.70;2.67;;;2.50;99.90;;;;;;6308993;22;20430;-29
2024/01/16 13:45:35;;;;;;;10.20;2.72;;;2.40;99.90;;;;;;6308639;22;20378;-30
2024/01/16 13:48:02;;;;;;;8.68;2.83;;;2.50;99.90;;;;;;6308250;22;20019;-30
2024/01/16 13:50:28;;;;;;;15.45;3.78;;;2.70;99.90;;;;;;6281418;22;20430;-30
2024/01/16 13:52:54;;;;;;;8.85;2.92;;;2.60;99.90;;;;;;6281206;22;20452;-30
2024/01/16 13:55:20;;;;;;;5.78;2.47;;;2.70;99.90;;;;;;6281047;22;20319;-31
2024/01/16 13:57:46;;;;;;;5.82;2.40;;;2.60;99.90;;;;;;6308545;22;20022;-30
2024/01/16 14:00:15;;;;;;;4.22;1.80;;;2.60;99.90;;;;;;6230408;22;20055;-30
2024/01/16 14:02:42;;;;;;;8.35;2.38;;;2.30;99.90;;;;;;6308515;22;20019;-30
2024/01/16 14:05:12;;;;;;;8.65;2.67;;;1.90;99.90;;;;;;6281173;22;20090;-31
2024/01/16 14:07:38;;;;;;;8.38;2.83;;;1.40;99.90;;;;;;6232013;22;20023;-31
2024/01/16 14:10:25;;;;;;;9.75;3.03;;;1.30;99.90;;;;;;6255960;22;20026;-30
2024/01/16 14:12:51;;;;;;;12.43;3.22;;;1.50;99.90;;;;;;6308007;22;20338;-30
2024/01/16 14:15:24;;;;;;;11.85;3.28;;;1.40;99.90;;;;;;6281225;22;20484;-30
2024/01/16 14:17:51;;;;;;;10.23;3.08;;;1.20;99.90;;;;;;6282143;22;20015;-30
2024/01/16 14:20:22;;;;;;;6.85;2.22;;;1.10;99.90;;;;;;6255471;22;20050;-30
2024/01/16 14:22:48;;;;;;;13.38;2.45;;;1.10;99.90;;;;;;6255642;22;20023;-30
2024/01/16 14:25:16;;;;;;;9.18;2.80;;;1.20;99.90;;;;;;6255706;22;20026;-30
2024/01/16 14:27:43;;;;;;;8.30;2.40;;;1.40;99.90;;;;;;6281954;22;20019;-31
2024/01/16 14:30:14;;;;;;;10.48;2.15;;;1.90;99.90;;;;;;6308141;22;20023;-30
2024/01/16 14:32:41;;;;;;;8.50;1.80;;;2.30;99.90;;;;;;6281188;22;20019;-30
2024/01/16 14:35:09;;;;;;;7.97;2.75;;;2.40;99.90;;;;;;6308020;22;20393;-30
2024/01/16 14:37:35;;;;;;;7.88;1.35;;;2.50;99.90;;;;;;6255226;22;20022;-30
2024/01/16 14:40:06;;;;;;;7.13;1.50;;;2.70;99.90;;;;;;6308529;22;20389;-30
2024/01/16 14:42:33;;;;;;;8.23;1.63;;;2.60;99.90;;;;;;6308915;22;20049;-30
2024/01/16 14:45:00;;;;;;;5.07;1.45;;;2.40;99.90;;;;;;6308182;22;20022;-31
2024/01/16 14:47:25;;;;;;;6.45;1.08;;;2.40;99.90;;;;;;6280392;22;20086;-30
2024/01/16 14:49:54;;;;;;;6.90;1.60;;;2.30;99.90;;;;;;6308114;22;20065;-31
2024/01/16 14:52:22;;;;;;;6.95;1.60;;;2.60;99.90;;;;;;6281551;22;20011;-31
2024/01/16 14:54:49;;;;;;;5.10;1.30;;;1.90;99.90;;;;;;6308676;22;20360;-31
2024/01/16 14:57:16;;;;;;;10.50;1.42;;;1.60;99.90;;;;;;6280764;22;20030;-31
2024/01/16 14:59:41;;;;;;;4.57;1.23;;;1.40;99.90;;;;;;6308410;22;20052;-31
2024/01/16 15:02:13;;;;;;;11.00;2.17;;;1.20;99.90;;;;;;6280801;22;20439;-32
2024/01/16 15:04:43;;;;;;;4.72;1.02;;;1.00;99.90;;;;;;6281083;22;20015;-31
2024/01/16 15:07:09;;;;;;;6.38;1.20;;;0.90;99.90;;;;;;6307979;22;20050;-31
2024/01/16 15:09:37;;;;;;;3.08;0.77;;;0.80;99.90;;;;;;6307983;22;20012;-32
2024/01/16 15:12:07;;;;;;;11.45;2.35;;;0.70;99.90;;;;;;6307992;22;20021;-31
2024/01/16 15:14:33;;;;;;;5.68;0.90;;;0.70;99.90;;;;;;6308922;22;20038;-32
2024/01/16 15:17:00;;;;;;;3.72;0.90;;;0.60;99.90;;;;;;6280386;22;20027;-32
2024/01/16 15:19:26;;;;;;;8.15;1.38;;;0.50;99.90;;;;;;6280996;22;20020;-32
2024/01/16 15:21:52;;;;;;;5.20;1.17;;;0.50;99.90;;;;;;6307575;22;20350;-32
2024/01/16 15:24:25;;;;;;;8.13;1.45;;;0.40;99.90;;;;;;6308656;22;20019;-32
2024/01/16 15:26:53;;;;;;;3.47;1.23;;;0.30;99.90;;;;;;6307995;22;20019;-32
2024/01/16 15:29:19;;;;;;;6.65;1.52;;;0.30;99.90;;;;;;6308025;22;20020;-31
2024/01/16 15:31:44;;;;;;;8.60;1.48;;;0.30;99.90;;;;;;6280619;22;20011;-32
2024/01/16 15:34:10;;;;;;;3.33;0.90;;;0.30;99.90;;;;;;6255237;22;20011;-32
2024/01/16 15:36:36;;;;;;;7.38;1.40;;;0.30;99.90;;;;;;6255947;22;20325;-32
2024/01/16 15:39:02;;;;;;;4.57;0.82;;;0.40;99.90;;;;;;6280745;22;20019;-32
2024/01/16 15:41:28;;;;;;;6.18;1.63;;;0.40;99.90;;;;;;6282250;22;20364;-32
2024/01/16 15:43:53;;;;;;;8.80;1.38;;;0.30;99.90;;;;;;6309810;22;20015;-33
2024/01/16 15:46:19;;;;;;;10.02;1.20;;;0.20;99.90;;;;;;6282520;22;20019;-32
2024/01/16 15:48:45;;;;;;;6.70;1.27;;;0.10;99.90;;;;;;6309895;22;20019;-32
2024/01/16 15:51:11;;;;;;;6.30;1.15;;;0.00;99.90;;;;;;6256946;22;20403;-32
2024/01/16 15:53:36;;;;;;;4.90;1.20;;;-0.10;99.90;;;;;;6256035;22;20050;-36
2024/01/16 15:56:07;;;;;;;7.50;1.30;;;-0.20;99.90;;;;;;6280571;22;20015;-36
2024/01/16 15:58:33;;;;;;;10.00;1.10;;;-0.30;99.90;;;;;;6309271;22;20117;-33
2024/01/16 16:00:59;;;;;;;6.57;1.20;;;-0.30;99.90;;;;;;6282585;22;20043;-33
2024/01/16 16:03:25;;;;;;;6.60;1.17;;;-0.30;99.90;;;;;;6309736;22;20015;-34
2024/01/16 16:05:53;;;;;;;5.70;1.85;;;-0.40;99.90;;;;;;6282377;22;20015;-33
2024/01/16 16:08:20;;;;;;;4.23;1.10;;;-0.40;99.90;;;;;;6309634;22;20047;-32
2024/01/16 16:10:47;;;;;;;10.27;1.10;;;-0.50;99.90;;;;;;6282343;22;20011;-34
2024/01/16 16:13:13;;;;;;;9.57;1.30;;;-0.50;99.90;;;;;;6309880;22;20015;-33
2024/01/16 16:15:42;;;;;;;6.93;1.83;;;-0.30;99.90;;;;;;6283105;22;20456;-34
2024/01/16 16:18:07;;;;;;;4.63;1.47;;;-0.70;99.90;;;;;;6309628;22;20023;-34
2024/01/16 16:20:34;;;;;;;8.43;1.73;;;-0.70;99.90;;;;;;6309615;22;20014;-33
2024/01/16 16:23:00;;;;;;;7.43;1.33;;;-0.70;99.90;;;;;;6281891;22;20102;-34
2024/01/16 16:25:25;;;;;;;8.93;1.87;;;-0.80;99.90;;;;;;6282330;22;20046;-34
2024/01/16 16:27:51;;;;;;;9.80;2.07;;;-0.90;99.90;;;;;;6281892;22;20015;-34
2024/01/16 16:30:17;;;;;;;8.70;1.57;;;-0.90;99.90;;;;;;6309444;22;20054;-34
2024/01/16 16:32:43;;;;;;;11.33;1.90;;;-1.00;99.90;;;;;;6283027;22;20022;-34
2024/01/16 16:35:10;;;;;;;7.50;1.53;;;-1.00;99.90;;;;;;6309416;22;20017;-33
2024/01/16 16:37:35;;;;;;;7.27;1.20;;;-0.90;99.90;;;;;;6309424;22;20015;-33
2024/01/16 16:40:04;;;;;;;10.87;1.47;;;-1.10;99.90;;;;;;6256650;22;20069;-34
2024/01/16 16:42:30;;;;;;;12.00;1.90;;;-1.10;99.90;;;;;;6309340;22;20015;-35
2024/01/16 16:44:58;;;;;;;8.43;2.23;;;-1.20;99.90;;;;;;6282061;22;20064;-35
2024/01/16 16:47:23;;;;;;;11.83;1.77;;;-1.20;99.90;;;;;;6282328;22;20450;-33
2024/01/16 16:49:49;;;;;;;11.00;2.93;;;-1.20;99.90;;;;;;6309288;22;20026;-35
2024/01/16 16:52:15;;;;;;;6.87;1.70;;;-1.30;99.90;;;;;;6309492;22;20318;-35
2024/01/16 16:54:45;;;;;;;8.40;1.40;;;-1.30;99.90;;;;;;6281851;22;20482;-38
2024/01/16 16:57:11;;;;;;;5.00;1.37;;;-1.30;99.90;;;;;;6309294;22;20165;-38
2024/01/16 16:59:38;;;;;;;11.97;2.20;;;-1.30;99.90;;;;;;6232211;22;20015;-40
2024/01/16 17:02:04;;;;;;;5.50;1.50;;;-1.30;99.90;;;;;;6309556;22;20034;-39
2024/01/16 17:04:30;;;;;;;6.00;1.70;;;-1.30;99.90;;;;;;6309821;22;20422;-40
2024/01/16 17:06:57;;;;;;;8.00;1.70;;;-1.20;99.90;;;;;;6281759;22;20022;-40
2024/01/16 17:09:24;;;;;;;7.47;2.07;;;-1.20;99.90;;;;;;6256504;22;20052;-40
2024/01/16 17:11:49;;;;;;;8.93;2.40;;;-1.20;99.90;;;;;;6281884;22;20069;-41
2024/01/16 17:14:16;;;;;;;11.00;2.50;;;-1.30;99.90;;;;;;6255866;22;20015;-40
2024/01/16 17:16:41;;;;;;;6.60;1.40;;;-1.30;99.90;;;;;;6281640;22;20046;-41
2024/01/16 17:19:08;;;;;;;6.33;1.90;;;-1.20;99.90;;;;;;6310029;22;20292;-41
2024/01/16 17:21:34;;;;;;;6.40;2.10;;;-1.20;99.90;;;;;;6281914;22;20326;-41
2024/01/16 17:23:59;;;;;;;7.23;2.43;;;-1.20;99.90;;;;;;6282785;22;20011;-42
2024/01/16 17:26:25;;;;;;;6.27;1.70;;;-1.20;99.90;;;;;;6282121;22;20034;-41
2024/01/16 17:28:54;;;;;;;9.50;1.57;;;-1.10;99.90;;;;;;6281510;22;20019;-41
2024/01/16 17:31:21;;;;;;;6.00;2.10;;;-1.10;99.90;;;;;;6308978;22;20013;-40
2024/01/16 17:33:46;;;;;;;5.93;1.60;;;-1.00;99.90;;;;;;6281795;22;20023;-41
2024/01/16 17:36:12;;;;;;;12.53;2.40;;;-0.90;99.90;;;;;;6255938;22;20015;-41
2024/01/16 17:38:41;;;;;;;7.43;1.73;;;-0.90;99.90;;;;;;6308866;22;20015;-41
2024/01/16 17:41:07;;;;;;;7.00;1.40;;;-0.90;99.90;;;;;;6232025;22;20015;-41
2024/01/16 17:43:33;;;;;;;10.13;2.67;;;-0.90;99.90;;;;;;6309413;22;20045;-41
2024/01/16 17:45:59;;;;;;;7.93;1.67;;;-0.80;99.90;;;;;;6308720;22;20094;-42
2024/01/16 17:48:25;;;;;;;5.60;1.63;;;-0.70;99.90;;;;;;6308496;22;20057;-40
2024/01/16 17:50:51;;;;;;;4.83;1.40;;;-0.70;99.90;;;;;;6281712;22;20011;-41
2024/01/16 17:53:17;;;;;;;8.17;1.60;;;-0.60;99.90;;;;;;6281332;22;20015;-42
2024/01/16 17:55:43;;;;;;;11.47;1.53;;;-0.60;99.90;;;;;;6281478;22;20029;-42
2024/01/16 17:58:10;;;;;;;5.10;1.63;;;-0.60;99.90;;;;;;6308559;22;20011;-42
2024/01/16 18:00:35;;;;;;;9.67;1.13;;;-0.50;99.90;;;;;;6282691;22;20033;-41
2024/01/16 18:03:06;;;;;;;6.63;1.40;;;-0.50;99.90;;;;;;6255871;22;20441;-42
2024/01/16 18:05:32;;;;;;;5.17;0.90;;;-0.20;99.90;;;;;;6309215;22;20014;-41
2024/01/16 18:08:00;;;;;;;6.75;1.55;;;-0.50;99.90;;;;;;6308551;22;20015;-42
2024/01/16 18:10:26;;;;;;;6.83;1.20;;;-0.50;99.90;;;;;;6255805;22;20419;-42
2024/01/16 18:12:52;;;;;;;8.13;1.30;;;-0.50;99.90;;;;;;6308438;22;20441;-42
2024/01/16 18:15:18;;;;;;;5.13;1.55;;;-0.50;99.90;;;;;;6281094;22;20046;-42
2024/01/16 18:17:49;;;;;;;4.23;1.20;;;-0.40;99.90;;;;;;6308456;22;20015;-42
2024/01/16 18:20:20;;;;;;;3.47;1.50;;;-0.40;99.90;;;;;;6255691;22;20025;-41
2024/01/16 18:22:55;;;;;;;2.30;0.83;;;-0.40;99.90;;;;;;6308394;22;20069;-42
2024/01/16 18:25:24;;;;;;;6.67;1.10;;;-0.40;99.90;;;;;;6309436;22;20007;-42
2024/01/16 18:27:53;;;;;;;15.07;1.83;;;-0.40;99.90;;;;;;6281237;22;20069;-42
2024/01/16 18:30:22;;;;;;;5.80;1.73;;;-0.30;99.90;;;;;;6308327;22;20040;-42
2024/01/16 18:32:48;;;;;;;3.10;1.00;;;-0.40;99.90;;;;;;6308350;22;20011;-42
2024/01/16 18:35:16;;;;;;;3.17;0.90;;;-0.30;99.90;;;;;;6308266;22;20429;-42
2024/01/16 18:37:43;;;;;;;5.88;1.42;;;0.10;99.90;;;;;;6308322;22;20051;-42
2024/01/16 18:40:10;;;;;;;3.25;1.13;;;-0.40;99.90;;;;;;6308278;22;20011;-42
2024/01/16 18:42:37;;;;;;;5.07;1.60;;;-0.40;99.90;;;;;;6281359;22;20034;-42
2024/01/16 18:45:04;;;;;;;3.13;1.23;;;-0.50;99.90;;;;;;6256407;22;20007;-42
2024/01/16 18:47:31;;;;;;;2.67;1.00;;;-0.50;99.90;;;;;;6307850;22;20049;-42
2024/01/16 18:49:58;;;;;;;8.73;1.87;;;-0.60;99.90;;;;;;6308250;22;20019;-42
2024/01/16 18:52:23;;;;;;;4.77;1.50;;;-0.60;99.90;;;;;;6281856;22;20408;-42
2024/01/16 18:54:50;;;;;;;9.27;1.77;;;-0.50;99.90;;;;;;6281238;22;20046;-41
2024/01/16 18:57:17;;;;;;;5.37;1.50;;;-0.60;99.90;;;;;;6255341;22;20125;-43
2024/01/16 18:59:44;;;;;;;3.87;1.67;;;-0.60;99.90;;;;;;6281504;22;20011;-42
2024/01/16 19:02:11;;;;;;;4.63;2.03;;;-0.70;99.90;;;;;;6308171;22;20426;-43
2024/01/16 19:04:41;;;;;;;7.43;2.13;;;-0.70;99.90;;;;;;6280939;22;20086;-43
2024/01/16 19:07:11;;;;;;;5.23;2.30;;;-0.70;99.90;;;;;;6309099;22;20030;-43
2024/01/16 19:09:43;;;;;;;4.43;2.40;;;-0.80;99.90;;;;;;6308109;22;20064;-41
2024/01/16 19:12:12;;;;;;;4.37;2.27;;;-0.80;99.90;;;;;;6308074;22;20022;-44
2024/01/16 19:14:43;;;;;;;5.60;1.93;;;-0.80;99.90;;;;;;6280325;22;20072;-42
2024/01/16 19:17:10;;;;;;;9.00;3.23;;;-0.90;99.90;;;;;;6310117;22;20015;-42
2024/01/16 19:19:36;;;;;;;8.87;3.30;;;-0.90;99.90;;;;;;6310197;22;20007;-43
2024/01/16 19:22:03;;;;;;;7.93;3.10;;;-1.00;99.90;;;;;;6310093;22;20076;-43
2024/01/16 19:24:29;;;;;;;10.93;2.90;;;-1.10;99.90;;;;;;6310174;22;20057;-43
2024/01/16 19:26:55;;;;;;;10.13;3.47;;;-1.10;99.90;;;;;;6258207;22;20038;-43
2024/01/16 19:29:21;;;;;;;10.27;3.50;;;-1.10;99.90;;;;;;6310139;22;20430;-43
2024/01/16 19:31:47;;;;;;;9.40;3.20;;;-1.20;99.90;;;;;;6282719;22;20021;-42
2024/01/16 19:34:13;;;;;;;8.97;4.10;;;-1.20;99.90;;;;;;6282613;22;20090;-43
2024/01/16 19:36:41;;;;;;;9.33;3.80;;;-1.30;99.90;;;;;;6282821;22;20033;-42
2024/01/16 19:39:14;;;;;;;10.40;4.37;;;-1.30;99.90;;;;;;6282675;22;20046;-43
2024/01/16 19:41:44;;;;;;;10.77;4.43;;;-1.20;99.90;;;;;;6258711;22;20053;-43
2024/01/16 19:44:10;;;;;;;13.10;4.67;;;-1.20;99.90;;;;;;6283162;22;20351;-43
2024/01/16 19:46:41;;;;;;;6.90;4.13;;;-1.20;99.90;;;;;;6309949;22;20019;-43
2024/01/16 19:49:08;;;;;;;7.27;3.43;;;-1.20;99.90;;;;;;6309384;22;20097;-43
2024/01/16 19:51:43;;;;;;;10.17;4.50;;;-1.30;99.90;;;;;;6282806;22;20015;-43
2024/01/16 19:54:09;;;;;;;8.27;4.07;;;-1.30;99.90;;;;;;6257469;22;20011;-43
2024/01/16 19:56:36;;;;;;;8.53;3.97;;;-1.20;99.90;;;;;;6309854;22;20442;-43
2024/01/16 19:59:04;;;;;;;8.37;4.10;;;-1.20;99.90;;;;;;6310768;22;20023;-43
2024/01/16 20:01:33;;;;;;;12.17;4.43;;;-1.10;99.90;;;;;;6310108;22;20353;-43
2024/01/16 20:04:00;;;;;;;14.13;3.70;;;-1.10;99.90;;;;;;6282498;22;20090;-43
2024/01/16 20:06:27;;;;;;;7.87;4.20;;;-1.00;99.90;;;;;;6309740;22;20015;-43
2024/01/16 20:08:57;;;;;;;19.37;4.50;;;-1.00;99.90;;;;;;6309728;22;20427;-43
2024/01/16 20:11:30;;;;;;;10.23;4.50;;;-1.00;99.90;;;;;;6256839;22;20019;-43
2024/01/16 20:13:57;;;;;;;10.43;5.77;;;-0.90;99.90;;;;;;6309594;22;20014;-43
2024/01/16 20:16:28;;;;;;;9.50;4.50;;;-0.80;99.90;;;;;;6310291;22;20015;-43
2024/01/16 20:18:57;;;;;;;7.30;3.70;;;-0.70;99.90;;;;;;6310387;22;20015;-44
2024/01/16 20:21:26;;;;;;;7.60;4.00;;;-0.60;99.90;;;;;;6282344;22;20299;-43
2024/01/16 20:23:52;;;;;;;9.13;4.00;;;-0.50;99.90;;;;;;6309441;22;20011;-42
2024/01/16 20:26:19;;;;;;;12.03;4.60;;;-0.40;99.90;;;;;;6283050;22;20086;-40
2024/01/16 20:28:46;;;;;;;8.73;5.07;;;-0.40;99.90;;;;;;6309523;22;20014;-43
2024/01/16 20:31:12;;;;;;;10.85;4.57;;;-0.20;99.90;;;;;;6282595;22;20458;-43
2024/01/16 20:33:45;;;;;;;9.97;3.53;;;-0.20;99.90;;;;;;6282451;22;20300;-43
2024/01/16 20:36:18;;;;;;;8.45;4.82;;;-0.30;99.90;;;;;;6310214;22;20049;-41
2024/01/16 20:38:45;;;;;;;11.95;4.75;;;-0.30;99.90;;;;;;6256554;22;20011;-42
2024/01/16 20:41:14;;;;;;;9.40;4.43;;;-0.30;99.90;;;;;;6310102;22;20097;-42
2024/01/16 20:43:40;;;;;;;11.57;4.88;;;-0.30;99.90;;;;;;6282043;22;20023;-41
2024/01/16 20:46:07;;;;;;;13.07;5.17;;;-0.30;99.90;;;;;;6309697;22;20019;-42
2024/01/16 20:48:34;;;;;;;9.90;5.30;;;-0.30;99.90;;;;;;6282022;22;20095;-42
2024/01/16 20:51:00;;;;;;;13.13;6.10;;;-0.40;99.90;;;;;;6282410;22;20020;-43
2024/01/16 20:53:27;;;;;;;11.37;6.17;;;-0.50;99.90;;;;;;6282006;22;20053;-42
2024/01/16 20:55:56;;;;;;;18.05;6.65;;;-0.50;99.90;;;;;;6309288;22;20085;-42
2024/01/16 20:58:23;;;;;;;10.45;5.07;;;-0.50;99.90;;;;;;6308808;22;20481;-42
2024/01/16 21:00:49;;;;;;;18.13;5.50;;;-0.50;99.90;;;;;;6309245;22;20089;-42
2024/01/16 21:03:18;;;;;;;9.73;5.78;;;-0.60;99.90;;;;;;6310185;22;20011;-42
2024/01/16 21:05:48;;;;;;;10.77;5.63;;;-0.50;99.90;;;;;;6310151;22;20014;-42
2024/01/16 21:08:14;;;;;;;9.80;5.55;;;-0.60;99.90;;;;;;6281957;22;20022;-42
2024/01/16 21:10:41;;;;;;;8.68;4.80;;;-0.60;99.90;;;;;;6282066;22;20086;-42
2024/01/16 21:13:09;;;;;;;10.30;5.40;;;-0.60;99.90;;;;;;6282601;22;20007;-42
2024/01/16 21:15:35;;;;;;;12.47;5.47;;;-0.60;99.90;;;;;;6282333;22;20011;-41
2024/01/16 21:18:03;;;;;;;10.53;5.33;;;-0.60;99.90;;;;;;6309144;22;20090;-43
2024/01/16 21:20:29;;;;;;;10.50;4.93;;;-0.60;99.90;;;;;;6309024;22;20015;-42
2024/01/16 21:22:55;;;;;;;13.60;5.50;;;-0.60;99.90;;;;;;6309672;22;20018;-42
2024/01/16 21:25:24;;;;;;;14.30;5.57;;;-0.60;99.90;;;;;;6281746;22;20007;-42
2024/01/16 21:27:50;;;;;;;10.07;5.67;;;-0.60;99.90;;;;;;6282642;22;20288;-42
2024/01/16 21:30:16;;;;;;;8.63;4.60;;;-0.60;99.90;;;;;;6308873;22;20018;-40
2024/01/16 21:32:42;;;;;;;9.87;4.90;;;-0.50;99.90;;;;;;6308920;22;20023;-41
2024/01/16 21:35:09;;;;;;;12.53;4.67;;;-0.50;99.90;;;;;;6308777;22;20089;-41
2024/01/16 21:37:36;;;;;;;9.67;5.23;;;-0.50;99.90;;;;;;6308563;22;20076;-41
2024/01/16 21:40:05;;;;;;;10.87;4.37;;;-0.50;99.90;;;;;;6281385;22;20438;-42
2024/01/16 21:42:31;;;;;;;11.90;4.60;;;-0.60;99.90;;;;;;6308827;22;20011;-39
2024/01/16 21:44:57;;;;;;;13.47;4.63;;;-0.60;99.90;;;;;;6309436;22;20011;-40
2024/01/16 21:47:23;;;;;;;11.77;5.73;;;-0.60;99.90;;;;;;6308713;22;20018;-39
2024/01/16 21:49:50;;;;;;;7.20;4.43;;;-0.60;99.90;;;;;;6308719;22;20023;-39
2024/01/16 21:52:16;;;;;;;8.80;5.17;;;-0.50;99.90;;;;;;6308716;22;20064;-39
2024/01/16 21:54:41;;;;;;;14.20;6.30;;;-0.60;99.90;;;;;;6281406;22;20046;-41
2024/01/16 21:57:08;;;;;;;8.37;4.90;;;-0.60;99.90;;;;;;6282543;22;20011;-40
2024/01/16 21:59:34;;;;;;;7.30;4.10;;;-0.60;99.90;;;;;;6282285;22;20008;-38
2024/01/16 22:02:00;;;;;;;11.23;4.87;;;-0.40;99.90;;;;;;6308676;22;20034;-39
2024/01/16 22:04:27;;;;;;;7.83;4.53;;;-0.30;99.90;;;;;;6309231;22;20051;-36
2024/01/16 22:06:53;;;;;;;5.93;4.13;;;-0.30;99.90;;;;;;6281197;22;20015;-40
2024/01/16 22:09:21;;;;;;;10.00;5.30;;;-0.30;99.90;;;;;;6308906;22;20007;-41
2024/01/16 22:11:48;;;;;;;12.45;5.20;;;0.00;99.90;;;;;;6281267;22;20011;-40
2024/01/16 22:14:14;;;;;;;13.63;6.05;;;-0.30;99.90;;;;;;6281247;22;20019;-40
2024/01/16 22:16:40;;;;;;;9.73;4.93;;;-0.20;99.90;;;;;;6308510;22;20431;-42
2024/01/16 22:19:06;;;;;;;9.68;4.68;;;-0.20;99.90;;;;;;6256892;22;20013;-37
2024/01/16 22:21:32;;;;;;;10.30;4.72;;;-0.20;99.90;;;;;;6281989;22;20094;-37
2024/01/16 22:23:59;;;;;;;7.25;4.05;;;-0.10;99.90;;;;;;6281471;22;20437;-38
2024/01/16 22:26:25;;;;;;;8.48;4.85;;;-0.10;99.90;;;;;;6255720;22;20015;-40
2024/01/16 22:28:51;;;;;;;8.63;4.18;;;-0.20;99.90;;;;;;6309118;22;20019;-41
2024/01/16 22:31:17;;;;;;;9.43;4.22;;;-0.10;99.90;;;;;;6281043;22;20011;-38
2024/01/16 22:33:42;;;;;;;12.65;3.55;;;-0.20;99.90;;;;;;6308567;22;20047;-38
2024/01/16 22:36:11;;;;;;;9.05;4.00;;;0.10;99.90;;;;;;6308304;22;20438;-40
2024/01/16 22:38:37;;;;;;;9.57;3.83;;;-0.20;99.90;;;;;;6308989;22;20019;-40
2024/01/16 22:41:06;;;;;;;6.83;3.43;;;-0.20;99.90;;;;;;6281008;22;20449;-39
2024/01/16 22:43:33;;;;;;;9.50;4.22;;;-0.10;99.90;;;;;;6308251;22;20048;-41
2024/01/16 22:46:00;;;;;;;9.00;3.50;;;-0.10;99.90;;;;;;6308253;22;20022;-38
2024/01/16 22:48:26;;;;;;;9.10;3.85;;;-0.10;99.90;;;;;;6280438;22;20018;-39
2024/01/16 22:50:51;;;;;;;11.13;4.20;;;0.10;99.90;;;;;;6281981;22;20023;-38
2024/01/16 22:53:17;;;;;;;10.10;4.17;;;-0.10;99.90;;;;;;6309178;22;20051;-39
2024/01/16 22:55:45;;;;;;;11.97;3.83;;;0.00;99.90;;;;;;6308186;22;20050;-37
2024/01/16 22:58:11;;;;;;;6.17;3.43;;;0.00;99.90;;;;;;6281195;22;20417;-38
2024/01/16 23:00:42;;;;;;;6.43;3.28;;;0.10;99.90;;;;;;6308244;22;20022;-37
2024/01/16 23:03:09;;;;;;;6.88;3.15;;;0.10;99.90;;;;;;6308590;22;20015;-40
2024/01/16 23:05:36;;;;;;;6.07;3.20;;;0.10;99.90;;;;;;6281322;22;20019;-39
2024/01/16 23:08:03;;;;;;;8.45;3.42;;;0.10;99.90;;;;;;6308477;22;20008;-39
2024/01/16 23:10:29;;;;;;;8.80;2.85;;;0.10;99.90;;;;;;6255585;22;20333;-37
2024/01/16 23:12:55;;;;;;;6.07;3.38;;;0.10;99.90;;;;;;6308134;22;20018;-38
2024/01/16 23:15:20;;;;;;;4.75;2.60;;;0.10;99.90;;;;;;6309010;22;20085;-40
2024/01/16 23:17:47;;;;;;;6.65;2.50;;;0.10;99.90;;;;;;6308841;22;20407;-40
2024/01/16 23:20:13;;;;;;;8.30;2.58;;;0.10;99.90;;;;;;6255277;22;20047;-40
2024/01/16 23:22:51;;;;;;;5.50;2.45;;;0.10;99.90;;;;;;6281732;22;20047;-40
2024/01/16 23:25:17;;;;;;;8.57;2.53;;;0.20;99.90;;;;;;6308491;22;20015;-39
2024/01/16 23:27:43;;;;;;;7.32;3.00;;;0.40;99.90;;;;;;6280720;22;20015;-39
2024/01/16 23:30:11;;;;;;;5.55;2.30;;;0.10;99.90;;;;;;6281114;22;20017;-37
2024/01/16 23:32:39;;;;;;;5.55;2.28;;;0.10;99.90;;;;;;6308048;22;20069;-39
2024/01/16 23:35:09;;;;;;;4.93;2.38;;;0.10;99.90;;;;;;6280486;22;20011;-40
2024/01/16 23:37:40;;;;;;;8.47;2.77;;;0.10;99.90;;;;;;6307574;22;20362;-41
2024/01/16 23:40:08;;;;;;;6.78;2.65;;;0.10;99.90;;;;;;6281666;22;20021;-38
2024/01/16 23:42:37;;;;;;;5.28;2.38;;;0.10;99.90;;;;;;6280615;22;20406;-39
2024/01/16 23:45:03;;;;;;;3.17;1.55;;;0.10;99.90;;;;;;6206061;22;20012;-38
2024/01/16 23:47:29;;;;;;;5.68;2.25;;;0.00;99.90;;;;;;6307913;22;20023;-38
2024/01/16 23:49:55;;;;;;;4.78;2.10;;;0.20;99.90;;;;;;6280164;22;20015;-41
2024/01/16 23:52:21;;;;;;;7.32;2.53;;;-0.10;99.90;;;;;;6280628;22;20098;-40
2024/01/16 23:54:46;;;;;;;5.35;2.25;;;-0.10;99.90;;;;;;6281400;22;20100;-36
2024/01/16 23:57:12;;;;;;;13.45;2.85;;;-0.10;99.90;;;;;;6308189;22;20034;-40
2024/01/16 23:59:39;;;;;;;7.15;2.03;;;-0.10;99.90;;;;;;6307976;22;20046;-38
